Carmel, California
Current Conditions -  °F | °C
As of 9:54 PM on Tuesday 25 Nov 2014 (Local Time) from KMRY Reporting Station
Clear Clear  
Wind Chill: 51°   Ceiling: Unl
Heat Index: 51°   Visibility: 10mi
Dew Point: 38°   Wind: 6mph
Humidity: 61%   Direction: 110°ESE
Pressure: 30.32"   Gusts: NA
Location:  36.56°N, 121.92°W
Report Text: KMRY 260554Z AUTO 11005KT 10SM CLR 11/03 A3032 RMK AO2 SLP280 T01060033 10211 20100 58003
Loading
Personal Weather Stations






























Interactive Weather Map New forecast layout! Learn more

10-Day Weather Forecast

Advertisements
Track Severe Weather on mobile